createdAt,value
2023-01-02T00:00:27.170Z,12.10
2023-01-02T00:03:13.121Z,6.82
2023-01-02T00:06:02.386Z,9.75
2023-01-02T00:08:48.109Z,7.75
2023-01-02T00:11:34.462Z,6.35
2023-01-02T00:14:20.140Z,8.05
2023-01-02T00:17:05.519Z,8.25
2023-01-02T00:19:51.219Z,5.57
2023-01-02T00:22:36.488Z,10.60
2023-01-02T00:25:21.929Z,9.10
2023-01-02T00:28:07.432Z,10.95
2023-01-02T00:30:53.236Z,9.65
2023-01-02T00:33:51.552Z,9.68
2023-01-02T00:36:38.894Z,9.35
2023-01-02T00:39:26.452Z,9.10
2023-01-02T00:42:11.882Z,6.50
2023-01-02T00:44:57.455Z,10.82
2023-01-02T00:47:43.499Z,5.10
2023-01-02T00:50:29.485Z,6.30
2023-01-02T00:53:15.590Z,11.20
2023-01-02T00:56:00.879Z,6.63
2023-01-02T00:58:46.340Z,7.10
2023-01-02T01:01:34.853Z,10.48
2023-01-02T01:04:25.776Z,4.85
2023-01-02T01:07:16.578Z,8.70
2023-01-02T01:10:04.077Z,13.88
2023-01-02T01:12:58.612Z,7.07
2023-01-02T01:15:44.743Z,18.17
2023-01-02T01:18:30.290Z,17.80
2023-01-02T01:21:19.244Z,8.32
2023-01-02T01:24:05.000Z,6.40
2023-01-02T01:26:50.571Z,9.75
2023-01-02T01:29:35.909Z,13.25
2023-01-02T01:32:21.356Z,14.85
2023-01-02T01:35:07.725Z,20.90
2023-01-02T01:37:53.229Z,3.88
2023-01-02T01:40:39.928Z,13.45
2023-01-02T01:43:52.847Z,13.60
2023-01-02T01:46:44.990Z,9.35
2023-01-02T01:49:30.696Z,7.13
2023-01-02T01:52:21.776Z,7.25
2023-01-02T01:55:10.559Z,8.38
2023-01-02T01:58:04.404Z,5.90
2023-01-02T02:00:55.546Z,11.00
2023-01-02T02:03:51.953Z,11.32
2023-01-02T02:06:38.741Z,6.28
2023-01-02T02:09:36.744Z,5.68
2023-01-02T02:12:28.394Z,7.20
2023-01-02T02:15:20.058Z,7.60
2023-01-02T02:18:30.868Z,5.25
2023-01-02T02:21:31.395Z,8.68
2023-01-02T02:24:42.553Z,5.28
2023-01-02T02:27:48.349Z,7.57
2023-01-02T02:30:40.708Z,4.65
2023-01-02T02:34:04.884Z,4.05
2023-01-02T02:40:30.199Z,10.50
2023-01-02T02:43:59.264Z,3.70
2023-01-02T02:47:01.816Z,10.02
2023-01-02T02:49:58.622Z,9.20
2023-01-02T02:53:03.615Z,5.22
2023-01-02T02:55:54.206Z,9.38
2023-01-02T02:58:42.763Z,5.70
2023-01-02T03:01:30.889Z,7.72
2023-01-02T03:04:19.892Z,13.32
2023-01-02T03:07:11.846Z,8.55
2023-01-02T03:10:22.901Z,7.97
2023-01-02T03:13:41.025Z,5.18
2023-01-02T03:16:33.793Z,9.65
2023-01-02T03:19:43.702Z,9.75
2023-01-02T03:22:36.561Z,10.20
2023-01-02T03:25:22.890Z,8.73
2023-01-02T03:28:10.129Z,8.15
2023-01-02T03:31:01.984Z,6.32
2023-01-02T03:33:58.935Z,6.35
2023-01-02T03:36:50.020Z,9.65
2023-01-02T03:39:45.861Z,9.02
2023-01-02T03:42:38.208Z,12.65
2023-01-02T03:45:28.478Z,10.30
2023-01-02T03:48:27.724Z,11.82
2023-01-02T03:51:13.324Z,9.60
2023-01-02T03:54:00.805Z,13.68
2023-01-02T03:56:57.062Z,9.30
2023-01-02T03:59:54.905Z,8.18
2023-01-02T04:02:59.789Z,12.55
2023-01-02T04:05:51.846Z,11.07
2023-01-02T04:08:49.778Z,9.68
2023-01-02T04:11:37.078Z,12.15
2023-01-02T04:14:37.119Z,10.02
2023-01-02T04:17:25.236Z,9.90
2023-01-02T04:20:20.895Z,12.32
2023-01-02T04:23:14.045Z,8.82
2023-01-02T04:26:09.752Z,12.05
2023-01-02T04:28:55.526Z,11.02
2023-01-02T04:32:09.183Z,14.43
2023-01-02T04:34:55.689Z,12.27
2023-01-02T04:37:43.306Z,13.30
2023-01-02T04:40:30.863Z,12.57
2023-01-02T04:43:21.388Z,13.77
2023-01-02T04:46:06.776Z,10.35
2023-01-02T04:48:52.823Z,7.45
2023-01-02T04:51:38.509Z,8.20
2023-01-02T04:54:23.960Z,9.75
2023-01-02T04:57:09.614Z,14.52
2023-01-02T04:59:54.974Z,11.30
2023-01-02T05:02:40.779Z,10.73
2023-01-02T05:05:26.552Z,8.15
2023-01-02T05:08:16.153Z,10.55
2023-01-02T05:11:10.432Z,8.45
2023-01-02T05:14:41.427Z,11.25
2023-01-02T05:17:27.152Z,10.65
2023-01-02T05:20:13.507Z,9.60
2023-01-02T05:23:17.501Z,11.43
2023-01-02T05:26:03.004Z,10.07
2023-01-02T05:28:48.520Z,8.55
2023-01-02T05:31:33.848Z,11.07
2023-01-02T05:34:19.448Z,8.18
2023-01-02T05:37:04.894Z,9.18
2023-01-02T05:39:50.539Z,18.90
2023-01-02T05:42:36.058Z,16.90
2023-01-02T05:45:21.779Z,7.07
2023-01-02T05:48:06.936Z,9.27
2023-01-02T05:50:52.758Z,13.35
2023-01-02T05:53:38.379Z,11.27
2023-01-02T05:56:24.065Z,8.70
2023-01-02T05:59:09.848Z,11.68
2023-01-02T06:01:55.833Z,9.77
2023-01-02T06:04:41.202Z,12.15
2023-01-02T06:07:26.777Z,10.13
2023-01-02T06:10:12.354Z,11.00
2023-01-02T06:12:57.895Z,11.15
2023-01-02T06:15:43.460Z,9.50
2023-01-02T06:18:30.592Z,9.88
2023-01-02T06:21:18.096Z,12.30
2023-01-02T06:24:03.493Z,8.30
2023-01-02T06:26:48.971Z,11.93
2023-01-02T06:29:34.479Z,11.38
2023-01-02T06:32:20.039Z,9.13
2023-01-02T06:35:06.247Z,13.85
2023-01-02T06:37:51.863Z,6.80
2023-01-02T06:40:37.408Z,8.68
2023-01-02T06:43:23.521Z,9.45
2023-01-02T06:46:08.679Z,6.88
2023-01-02T06:48:54.442Z,10.82
2023-01-02T06:51:40.174Z,8.05
2023-01-02T06:54:25.360Z,11.73
2023-01-02T06:57:11.022Z,10.00
2023-01-02T06:59:56.260Z,7.22
2023-01-02T07:02:42.273Z,9.27
2023-01-02T07:05:28.041Z,7.25
2023-01-02T07:08:14.086Z,4.20
2023-01-02T07:11:18.957Z,3.33
2023-01-02T07:14:04.403Z,9.93
2023-01-02T07:16:50.569Z,7.75
2023-01-02T07:19:36.343Z,7.82
2023-01-02T07:22:21.907Z,10.88
2023-01-02T07:25:08.187Z,8.30
2023-01-02T07:27:53.437Z,12.82
2023-01-02T07:30:39.131Z,9.23
2023-01-02T07:33:25.198Z,7.72
2023-01-02T07:36:18.681Z,7.63
2023-01-02T07:39:04.174Z,7.28
2023-01-02T07:41:49.595Z,17.13
2023-01-02T07:44:35.105Z,17.25
2023-01-02T07:47:20.863Z,10.82
2023-01-02T07:50:06.906Z,11.98
2023-01-02T07:52:52.474Z,11.75
2023-01-02T07:55:37.864Z,10.45
2023-01-02T07:58:24.189Z,11.50
2023-01-02T08:01:13.047Z,12.70
2023-01-02T08:03:58.590Z,10.60
2023-01-02T08:06:43.890Z,10.77
2023-01-02T08:09:29.325Z,6.63
2023-01-02T08:12:14.986Z,10.60
2023-01-02T08:15:00.718Z,8.02
2023-01-02T08:17:46.557Z,6.35
2023-01-02T08:20:31.765Z,9.15
2023-01-02T08:23:17.119Z,7.10
2023-01-02T08:26:06.264Z,17.50
2023-01-02T08:28:51.897Z,8.85
2023-01-02T08:31:43.496Z,19.70
2023-01-02T08:34:29.259Z,8.30
2023-01-02T08:37:14.988Z,4.88
2023-01-02T08:40:00.412Z,6.95
2023-01-02T08:42:45.926Z,13.88
2023-01-02T08:45:31.636Z,13.07
2023-01-02T08:48:19.853Z,4.50
2023-01-02T08:51:06.732Z,12.90
2023-01-02T08:53:56.814Z,6.78
2023-01-02T08:56:42.866Z,8.65
2023-01-02T08:59:28.376Z,14.20
2023-01-02T09:02:15.087Z,14.40
2023-01-02T09:05:01.072Z,8.30
2023-01-02T09:07:46.435Z,8.43
2023-01-02T09:10:31.930Z,9.90
2023-01-02T09:13:17.416Z,7.30
2023-01-02T09:16:02.994Z,10.50
2023-01-02T09:18:49.724Z,13.85
2023-01-02T09:21:35.384Z,7.78
2023-01-02T09:24:20.745Z,7.47
2023-01-02T09:27:06.260Z,9.50
2023-01-02T09:29:53.865Z,12.73
2023-01-02T09:32:39.499Z,7.80
2023-01-02T09:35:24.834Z,7.15
2023-01-02T09:38:10.560Z,7.70
2023-01-02T09:40:57.463Z,12.82
2023-01-02T09:43:56.445Z,11.98
2023-01-02T09:47:06.852Z,5.88
2023-01-02T09:50:10.465Z,13.25
2023-01-02T09:53:00.019Z,19.75
2023-01-02T09:56:08.113Z,12.85
2023-01-02T09:58:58.868Z,10.32
2023-01-02T10:02:08.068Z,11.30
2023-01-02T10:05:34.087Z,7.50
2023-01-02T10:08:38.022Z,10.68
2023-01-02T10:11:39.598Z,10.05
2023-01-02T10:14:44.244Z,12.70
2023-01-02T10:17:36.887Z,12.23
2023-01-02T10:20:32.395Z,13.23
2023-01-02T10:23:23.842Z,10.18
2023-01-02T10:26:21.700Z,12.15
2023-01-02T10:29:21.615Z,10.60
2023-01-02T10:32:17.481Z,11.45
2023-01-02T10:35:05.919Z,4.32
2023-01-02T10:37:54.019Z,8.50
2023-01-02T10:40:43.245Z,6.72
2023-01-02T10:43:29.448Z,8.50
2023-01-02T10:46:15.045Z,8.50
2023-01-02T10:49:01.564Z,10.18
2023-01-02T10:52:18.272Z,9.82
2023-01-02T10:55:10.887Z,8.50
2023-01-02T10:58:04.382Z,11.15
2023-01-02T11:00:54.229Z,7.57
2023-01-02T11:03:40.457Z,7.95
2023-01-02T11:06:35.234Z,10.35
2023-01-02T11:09:26.482Z,7.28
2023-01-02T11:12:14.021Z,6.43
2023-01-02T11:15:14.253Z,5.13
2023-01-02T11:18:00.708Z,7.28
2023-01-02T11:20:53.540Z,8.70
2023-01-02T11:23:43.065Z,15.43
2023-01-02T11:26:30.450Z,6.40
2023-01-02T11:29:29.619Z,5.38
2023-01-02T11:32:26.112Z,7.40
2023-01-02T11:35:36.723Z,6.10
2023-01-02T11:38:46.187Z,6.18
2023-01-02T11:42:08.010Z,5.45
2023-01-02T11:45:16.952Z,5.65
2023-01-02T11:48:06.765Z,5.50
2023-01-02T11:50:52.833Z,3.78
2023-01-02T11:53:41.698Z,8.43
2023-01-02T11:56:38.047Z,4.07
2023-01-02T11:59:31.126Z,6.15
2023-01-02T12:02:40.716Z,5.45
2023-01-02T12:05:53.435Z,5.75
2023-01-02T12:09:07.221Z,4.70
2023-01-02T12:12:02.181Z,5.53
2023-01-02T12:15:06.151Z,4.97
2023-01-02T12:18:25.745Z,3.55
2023-01-02T12:21:26.130Z,4.05
2023-01-02T12:24:17.319Z,2.28
2023-01-02T12:27:05.403Z,2.92
2023-01-02T12:30:20.222Z,5.72
2023-01-02T12:33:31.752Z,4.88
2023-01-02T12:36:33.240Z,6.28
2023-01-02T12:39:45.584Z,4.07
2023-01-02T12:43:02.832Z,4.38
2023-01-02T12:45:57.594Z,4.97
2023-01-02T12:48:53.678Z,4.80
2023-01-02T12:51:57.465Z,5.28
2023-01-02T12:55:15.413Z,8.23
2023-01-02T12:58:23.686Z,3.47
2023-01-02T13:01:26.831Z,6.88
2023-01-02T13:04:31.827Z,3.95
2023-01-02T13:07:37.167Z,5.18
2023-01-02T13:10:27.121Z,6.40
2023-01-02T13:13:14.896Z,8.07
2023-01-02T13:16:10.341Z,4.07
2023-01-02T13:19:18.725Z,5.55
2023-01-02T13:22:12.362Z,3.30
2023-01-02T13:24:59.810Z,4.53
2023-01-02T13:27:48.214Z,5.05
2023-01-02T13:30:34.003Z,2.95
2023-01-02T13:33:22.514Z,8.45
2023-01-02T13:36:38.454Z,3.67
2023-01-02T13:39:39.013Z,5.97
2023-01-02T13:42:54.933Z,4.45
2023-01-02T13:45:47.515Z,5.07
2023-01-02T13:48:46.881Z,4.88
2023-01-02T13:51:35.720Z,3.22
2023-01-02T13:54:37.754Z,8.77
2023-01-02T13:57:29.042Z,6.28
2023-01-02T14:00:18.030Z,3.50
2023-01-02T14:03:26.385Z,3.70
2023-01-02T14:06:33.412Z,7.53
2023-01-02T14:09:21.949Z,2.90
2023-01-02T14:12:15.599Z,3.20
2023-01-02T14:15:01.205Z,4.15
2023-01-02T14:17:53.312Z,3.03
2023-01-02T14:20:45.491Z,2.60
2023-01-02T14:23:40.089Z,3.17
2023-01-02T14:26:34.745Z,5.07
2023-01-02T14:29:22.804Z,3.05
2023-01-02T14:32:18.036Z,5.50
2023-01-02T14:35:08.453Z,4.03
2023-01-02T14:37:56.959Z,3.95
2023-01-02T14:40:44.455Z,4.78
2023-01-02T14:43:37.665Z,4.45
2023-01-02T14:46:25.849Z,2.75
2023-01-02T14:49:26.767Z,4.30
2023-01-02T14:52:17.343Z,2.67
2023-01-02T14:55:20.135Z,3.83
2023-01-02T14:58:14.638Z,3.57
2023-01-02T15:01:04.375Z,3.78
2023-01-02T15:04:15.603Z,5.28
2023-01-02T15:07:22.438Z,4.22
2023-01-02T15:10:15.952Z,2.72
2023-01-02T15:13:05.124Z,5.72
2023-01-02T15:15:53.998Z,4.00
2023-01-02T15:18:39.839Z,4.82
2023-01-02T15:21:29.449Z,5.75
2023-01-02T15:24:34.100Z,3.38
2023-01-02T15:27:32.239Z,1.60
2023-01-02T15:30:29.375Z,3.40
2023-01-02T15:33:32.263Z,9.85
2023-01-02T15:36:39.668Z,5.50
2023-01-02T15:39:46.808Z,4.00
2023-01-02T15:42:50.832Z,6.65
2023-01-02T15:45:40.560Z,5.30
2023-01-02T15:48:28.496Z,4.55
2023-01-02T15:51:16.849Z,6.85
2023-01-02T15:54:03.555Z,3.83
2023-01-02T15:56:49.466Z,3.58
2023-01-02T15:59:38.471Z,4.30
2023-01-02T16:02:45.013Z,3.42
2023-01-02T16:05:43.637Z,5.45
2023-01-02T16:08:34.280Z,8.75
2023-01-02T16:14:20.252Z,6.68
2023-01-02T16:17:17.267Z,5.35
2023-01-02T16:20:07.738Z,7.22
2023-01-02T16:23:05.717Z,9.57
2023-01-02T16:25:51.149Z,9.75
2023-01-02T16:28:40.419Z,13.38
2023-01-02T16:31:25.891Z,12.13
2023-01-02T16:34:15.306Z,6.30
2023-01-02T16:37:39.077Z,7.80
2023-01-02T16:41:01.612Z,9.25
2023-01-02T16:43:31.445Z,6.40
2023-01-02T16:46:17.469Z,8.93
2023-01-02T16:49:05.409Z,9.02
2023-01-02T16:51:53.937Z,6.93
2023-01-02T16:54:39.744Z,8.00
2023-01-02T16:57:25.395Z,7.38
2023-01-02T17:00:12.053Z,6.07
2023-01-02T17:02:57.456Z,6.10
2023-01-02T17:05:46.693Z,8.65
2023-01-02T17:08:47.103Z,11.73
2023-01-02T17:11:32.595Z,10.38
2023-01-02T17:14:18.242Z,16.30
2023-01-02T17:17:03.667Z,11.23
2023-01-02T17:19:49.314Z,9.57
2023-01-02T17:22:35.753Z,8.25
2023-01-02T17:25:21.617Z,9.05
2023-01-02T17:28:07.515Z,9.70
2023-01-02T17:30:53.595Z,7.78
2023-01-02T17:33:38.717Z,9.27
2023-01-02T17:36:24.044Z,9.98
2023-01-02T17:39:09.496Z,11.32
2023-01-02T17:41:55.159Z,10.20
2023-01-02T17:44:40.631Z,12.88
2023-01-02T17:50:32.047Z,10.57
2023-01-02T17:53:17.438Z,12.60
2023-01-02T17:56:21.446Z,9.80
2023-01-02T17:59:07.963Z,12.40
2023-01-02T18:01:54.237Z,10.73
2023-01-02T18:04:40.098Z,11.48
2023-01-02T18:07:25.400Z,9.65
2023-01-02T18:10:14.798Z,10.30
2023-01-02T18:13:06.503Z,8.70
2023-01-02T18:15:52.183Z,8.43
2023-01-02T18:18:37.854Z,7.13
2023-01-02T18:21:28.477Z,6.32
2023-01-02T18:24:28.018Z,8.90
2023-01-02T18:27:27.492Z,8.68
2023-01-02T18:30:25.228Z,9.32
2023-01-02T18:33:17.374Z,10.68
2023-01-02T18:36:13.947Z,11.93
2023-01-02T18:39:13.851Z,9.40
2023-01-02T18:42:27.102Z,10.80
2023-01-02T18:45:17.068Z,12.10
2023-01-02T18:48:02.570Z,12.00
2023-01-02T18:51:00.896Z,14.07
2023-01-02T18:53:58.081Z,13.23
2023-01-02T18:56:43.604Z,14.05
2023-01-02T18:59:31.575Z,15.85
2023-01-02T19:02:38.867Z,15.60
2023-01-02T19:05:37.283Z,15.02
2023-01-02T19:08:37.540Z,16.58
2023-01-02T19:11:48.753Z,13.02
2023-01-02T19:14:39.699Z,15.35
2023-01-02T19:17:32.118Z,14.45
2023-01-02T19:20:17.626Z,14.80
2023-01-02T19:23:35.843Z,14.18
2023-01-02T19:26:41.763Z,13.98
2023-01-02T19:29:31.409Z,14.20
2023-01-02T19:32:26.410Z,16.33
2023-01-02T19:35:33.725Z,12.93
2023-01-02T19:38:30.719Z,14.77
2023-01-02T19:41:34.600Z,12.57
2023-01-02T19:44:25.213Z,13.98
2023-01-02T19:47:12.312Z,12.02
2023-01-02T19:49:58.534Z,13.05
2023-01-02T19:52:44.803Z,17.20
2023-01-02T19:55:30.556Z,10.43
2023-01-02T19:58:16.039Z,12.95
2023-01-02T20:01:01.403Z,11.63
2023-01-02T20:03:46.993Z,11.68
2023-01-02T20:06:33.839Z,17.38
2023-01-02T20:09:25.589Z,17.65
2023-01-02T20:12:30.197Z,18.17
2023-01-02T20:15:19.747Z,15.43
2023-01-02T20:18:08.835Z,15.70
2023-01-02T20:20:54.788Z,20.55
2023-01-02T20:23:40.599Z,19.90
2023-01-02T20:26:26.811Z,19.73
2023-01-02T20:29:15.819Z,24.55
2023-01-02T20:32:01.618Z,26.02
2023-01-02T20:34:47.533Z,28.55
2023-01-02T20:37:34.383Z,32.97
2023-01-02T20:40:20.267Z,28.63
2023-01-02T20:43:05.892Z,27.30
2023-01-02T20:45:51.631Z,30.73
2023-01-02T20:48:37.169Z,29.73
2023-01-02T20:51:23.034Z,23.50
2023-01-02T20:54:10.136Z,31.00
2023-01-02T20:56:56.273Z,23.92
2023-01-02T20:59:41.922Z,24.67
2023-01-02T21:02:28.520Z,23.77
2023-01-02T21:05:14.553Z,24.35
2023-01-02T21:08:00.137Z,23.27
2023-01-02T21:10:46.599Z,26.00
2023-01-02T21:13:32.454Z,28.70
2023-01-02T21:16:18.206Z,25.35
2023-01-02T21:19:04.215Z,26.25
2023-01-02T21:21:49.760Z,29.48
2023-01-02T21:24:35.109Z,31.52
2023-01-02T21:27:20.699Z,28.85
2023-01-02T21:30:07.512Z,35.20
2023-01-02T21:32:52.993Z,34.72
2023-01-02T21:35:40.240Z,41.05
2023-01-02T21:38:27.553Z,43.53
2023-01-02T21:41:32.079Z,38.40
2023-01-02T21:44:17.542Z,48.55
2023-01-02T21:47:03.698Z,40.92
2023-01-02T21:49:50.362Z,35.17
2023-01-02T21:52:36.530Z,29.38
2023-01-02T21:55:23.329Z,29.23
2023-01-02T21:58:13.666Z,24.60
2023-01-02T22:00:59.948Z,25.83
2023-01-02T22:03:45.652Z,27.65
2023-01-02T22:06:34.091Z,27.27
2023-01-02T22:09:20.480Z,26.92
2023-01-02T22:12:07.150Z,24.48
2023-01-02T22:14:52.737Z,23.48
2023-01-02T22:17:38.390Z,30.77
2023-01-02T22:20:24.688Z,25.58
2023-01-02T22:23:09.921Z,24.00
2023-01-02T22:25:56.034Z,28.92
2023-01-02T22:28:43.383Z,26.27
2023-01-02T22:31:29.560Z,33.13
2023-01-02T22:34:16.603Z,34.35
2023-01-02T22:37:02.255Z,33.42
2023-01-02T22:39:47.820Z,24.98
2023-01-02T22:43:10.129Z,28.30
2023-01-02T22:45:56.608Z,34.30
2023-01-02T22:48:43.685Z,26.42
2023-01-02T22:52:05.484Z,34.63
2023-01-02T22:54:45.886Z,33.28
2023-01-02T22:57:31.799Z,37.80
2023-01-02T23:00:19.624Z,46.53
2023-01-02T23:03:10.264Z,44.92
2023-01-02T23:05:56.676Z,47.17
2023-01-02T23:08:42.816Z,41.78
2023-01-02T23:11:28.668Z,33.70
2023-01-02T23:14:14.433Z,39.13
2023-01-02T23:17:20.320Z,29.52
2023-01-02T23:20:10.713Z,27.77
2023-01-02T23:22:56.330Z,17.65
2023-01-02T23:25:43.592Z,19.77
2023-01-02T23:29:04.447Z,12.73
2023-01-02T23:31:36.655Z,15.70
2023-01-02T23:34:25.010Z,12.40
2023-01-02T23:37:10.699Z,17.95
2023-01-02T23:39:56.196Z,16.30
2023-01-02T23:42:41.913Z,15.82
2023-01-02T23:45:27.682Z,16.77
2023-01-02T23:48:13.207Z,19.05
2023-01-02T23:51:04.071Z,15.18
2023-01-02T23:53:49.368Z,14.48
2023-01-02T23:56:37.593Z,16.20
2023-01-02T23:59:24.344Z,16.98
